createdAt,value
2023-02-03T00:00:27.585Z,77.75
2023-02-03T00:02:54.942Z,80.45
2023-02-03T00:05:22.278Z,79.68
2023-02-03T00:07:49.108Z,82.93
2023-02-03T00:10:21.174Z,82.93
2023-02-03T00:13:26.650Z,85.88
2023-02-03T00:16:26.708Z,84.05
2023-02-03T00:19:32.084Z,79.39
2023-02-03T00:21:58.513Z,83.36
2023-02-03T00:24:25.155Z,81.78
2023-02-03T00:27:26.691Z,82.92
2023-02-03T00:29:59.266Z,81.40
2023-02-03T00:32:25.839Z,79.85
2023-02-03T00:35:23.937Z,80.71
2023-02-03T00:38:26.425Z,81.35
2023-02-03T00:40:53.896Z,83.90
2023-02-03T00:43:20.842Z,80.55
2023-02-03T00:46:25.693Z,82.69
2023-02-03T00:48:52.109Z,79.85
2023-02-03T00:51:24.862Z,80.37
2023-02-03T00:54:26.664Z,82.32
2023-02-03T00:57:25.515Z,81.54
2023-02-03T00:59:51.967Z,82.88
2023-02-03T01:02:24.971Z,82.41
2023-02-03T01:04:58.821Z,82.33
2023-02-03T01:07:25.284Z,83.07
2023-02-03T01:09:51.763Z,85.33
2023-02-03T01:12:18.201Z,82.80
2023-02-03T01:14:44.691Z,84.63
2023-02-03T01:17:29.280Z,83.54
2023-02-03T01:20:01.861Z,82.79
2023-02-03T01:22:32.079Z,82.18
2023-02-03T01:25:01.569Z,81.76
2023-02-03T01:27:27.989Z,84.13
2023-02-03T01:32:43.835Z,84.84
2023-02-03T01:35:25.915Z,84.42
2023-02-03T01:38:26.611Z,84.17
2023-02-03T01:41:26.799Z,83.41
2023-02-03T01:43:55.855Z,83.82
2023-02-03T01:46:28.393Z,83.87
2023-02-03T01:49:26.147Z,82.52
2023-02-03T01:51:53.823Z,86.05
2023-02-03T01:54:31.382Z,85.76
2023-02-03T01:57:46.095Z,85.85
2023-02-03T02:00:24.973Z,86.21
2023-02-03T02:02:52.371Z,87.22
2023-02-03T02:05:45.995Z,86.36
2023-02-03T02:08:13.846Z,85.11
2023-02-03T02:10:40.832Z,84.71
2023-02-03T02:13:08.293Z,85.63
2023-02-03T02:15:44.483Z,86.14
2023-02-03T02:18:20.009Z,87.18
2023-02-03T02:21:05.927Z,86.47
2023-02-03T02:23:58.212Z,86.39
2023-02-03T02:26:52.878Z,87.76
2023-02-03T02:29:55.307Z,86.45
2023-02-03T02:32:27.430Z,86.32
2023-02-03T02:35:20.382Z,84.43
2023-02-03T02:38:04.865Z,84.75
2023-02-03T02:40:43.828Z,84.69
2023-02-03T02:43:28.683Z,86.04
2023-02-03T02:46:02.113Z,83.97
2023-02-03T02:48:35.101Z,84.31
2023-02-03T02:51:04.835Z,85.07
2023-02-03T02:53:35.532Z,84.19
2023-02-03T02:56:06.993Z,82.81
2023-02-03T02:58:35.947Z,84.55
2023-02-03T03:01:03.820Z,85.06
2023-02-03T03:03:30.356Z,81.48
2023-02-03T03:06:02.102Z,84.15
2023-02-03T03:08:39.451Z,80.65
2023-02-03T03:11:06.779Z,80.02
2023-02-03T03:13:38.860Z,81.94
2023-02-03T03:16:08.053Z,81.48
2023-02-03T03:18:43.971Z,82.54
2023-02-03T03:21:14.255Z,81.94
2023-02-03T03:23:44.479Z,81.54
2023-02-03T03:26:44.594Z,82.45
2023-02-03T03:29:17.693Z,82.78
2023-02-03T03:31:45.296Z,81.08
2023-02-03T03:34:13.331Z,80.77
2023-02-03T03:37:06.150Z,79.77
2023-02-03T03:39:44.771Z,79.85
2023-02-03T03:42:32.171Z,79.69
2023-02-03T03:45:26.814Z,80.43
2023-02-03T03:48:13.642Z,79.93
2023-02-03T03:50:59.182Z,79.21
2023-02-03T03:53:28.727Z,77.86
2023-02-03T03:55:57.403Z,78.67
2023-02-03T03:58:30.748Z,79.02
2023-02-03T04:01:02.464Z,77.86
2023-02-03T04:03:44.907Z,77.24
2023-02-03T04:06:12.315Z,77.91
2023-02-03T04:08:39.574Z,78.96
2023-02-03T04:11:06.672Z,78.63
2023-02-03T04:13:33.097Z,78.21
2023-02-03T04:15:59.621Z,77.91
2023-02-03T04:18:26.092Z,76.44
2023-02-03T04:20:52.493Z,75.76
2023-02-03T04:23:18.908Z,76.76
2023-02-03T04:25:45.311Z,77.81
2023-02-03T04:28:11.814Z,76.64
2023-02-03T04:30:39.162Z,77.84
2023-02-03T04:33:05.600Z,76.89
2023-02-03T04:35:31.989Z,76.77
2023-02-03T04:37:58.465Z,76.92
2023-02-03T04:40:25.147Z,77.49
2023-02-03T04:42:51.653Z,75.93
2023-02-03T04:45:18.175Z,74.25
2023-02-03T04:47:44.573Z,74.66
2023-02-03T04:50:11.107Z,74.19
2023-02-03T04:52:37.767Z,75.08
2023-02-03T04:55:04.485Z,77.14
2023-02-03T04:57:31.139Z,76.91
2023-02-03T04:59:57.605Z,75.70
2023-02-03T05:02:24.004Z,74.80
2023-02-03T05:04:50.546Z,76.49
2023-02-03T05:07:17.036Z,75.08
2023-02-03T05:09:43.427Z,72.22
2023-02-03T05:12:09.840Z,73.79
2023-02-03T05:14:36.266Z,73.70
2023-02-03T05:17:02.726Z,72.40
2023-02-03T05:19:29.137Z,73.53
2023-02-03T05:21:55.567Z,75.51
2023-02-03T05:24:21.978Z,74.22
2023-02-03T05:26:48.523Z,71.83
2023-02-03T05:29:14.956Z,72.72
2023-02-03T05:31:41.441Z,74.23
2023-02-03T05:34:07.989Z,73.29
2023-02-03T05:36:34.463Z,73.79
2023-02-03T05:39:00.926Z,73.24
2023-02-03T05:41:45.814Z,73.66
2023-02-03T05:44:12.231Z,71.53
2023-02-03T05:46:38.689Z,70.87
2023-02-03T05:49:05.210Z,72.54
2023-02-03T05:51:31.752Z,73.22
2023-02-03T05:53:58.202Z,73.29
2023-02-03T05:56:24.680Z,73.07
2023-02-03T05:58:53.850Z,71.80
2023-02-03T06:01:20.394Z,73.70
2023-02-03T06:03:47.862Z,71.93
2023-02-03T06:06:14.683Z,73.71
2023-02-03T06:08:41.278Z,72.13
2023-02-03T06:11:07.742Z,71.64
2023-02-03T06:13:34.238Z,71.96
2023-02-03T06:16:00.748Z,72.48
2023-02-03T06:18:27.353Z,73.41
2023-02-03T06:20:53.868Z,71.22
2023-02-03T06:23:20.422Z,73.68
2023-02-03T06:25:52.105Z,74.20
2023-02-03T06:28:18.902Z,73.91
2023-02-03T06:30:45.560Z,74.95
2023-02-03T06:33:12.032Z,72.67
2023-02-03T06:35:38.515Z,72.83
2023-02-03T06:38:06.010Z,73.68
2023-02-03T06:40:32.478Z,73.65
2023-02-03T06:42:58.995Z,75.38
2023-02-03T06:45:25.781Z,75.07
2023-02-03T06:47:52.197Z,74.04
2023-02-03T06:50:18.745Z,75.47
2023-02-03T06:52:45.327Z,76.38
2023-02-03T06:55:11.919Z,74.57
2023-02-03T06:57:48.466Z,76.28
2023-02-03T07:00:18.945Z,74.85
2023-02-03T07:02:46.358Z,76.10
2023-02-03T07:05:12.910Z,76.14
2023-02-03T07:07:39.501Z,78.36
2023-02-03T07:10:06.702Z,75.53
2023-02-03T07:12:33.181Z,78.02
2023-02-03T07:14:59.567Z,78.92
2023-02-03T07:17:26.109Z,78.08
2023-02-03T07:19:52.723Z,76.34
2023-02-03T07:22:19.186Z,75.27
2023-02-03T07:24:45.858Z,77.53
2023-02-03T07:27:12.305Z,77.82
2023-02-03T07:29:38.736Z,76.49
2023-02-03T07:32:05.426Z,75.93
2023-02-03T07:34:32.038Z,77.73
2023-02-03T07:36:59.029Z,78.10
2023-02-03T07:39:25.714Z,76.96
2023-02-03T07:41:52.264Z,77.45
2023-02-03T07:44:18.723Z,76.42
2023-02-03T07:46:45.539Z,76.63
2023-02-03T07:49:12.265Z,79.39
2023-02-03T07:51:38.804Z,77.68
2023-02-03T07:54:05.568Z,77.79
2023-02-03T07:56:32.753Z,76.85
2023-02-03T07:58:59.817Z,77.23
2023-02-03T08:01:27.314Z,79.43
2023-02-03T08:03:55.212Z,80.12
2023-02-03T08:06:21.971Z,79.87
2023-02-03T08:08:48.364Z,79.22
2023-02-03T08:11:14.812Z,80.04
2023-02-03T08:13:41.206Z,78.18
2023-02-03T08:16:07.680Z,79.13
2023-02-03T08:18:34.235Z,79.82
2023-02-03T08:21:02.543Z,78.02
2023-02-03T08:23:29.045Z,80.59
2023-02-03T08:25:55.462Z,78.60
2023-02-03T08:28:21.908Z,78.53
2023-02-03T08:30:48.410Z,82.29
2023-02-03T08:33:14.879Z,82.09
2023-02-03T08:35:44.733Z,80.80
2023-02-03T08:38:11.240Z,78.63
2023-02-03T08:40:38.280Z,78.92
2023-02-03T08:43:04.973Z,79.54
2023-02-03T08:45:31.481Z,79.32
2023-02-03T08:47:58.031Z,78.01
2023-02-03T08:50:24.535Z,79.01
2023-02-03T08:52:50.962Z,79.39
2023-02-03T08:55:17.415Z,80.37
2023-02-03T08:57:44.262Z,79.03
2023-02-03T09:00:11.506Z,79.32
2023-02-03T09:02:37.916Z,80.28
2023-02-03T09:05:04.658Z,80.54
2023-02-03T09:07:31.237Z,79.49
2023-02-03T09:09:57.667Z,81.38
2023-02-03T09:12:24.119Z,81.45
2023-02-03T09:14:50.949Z,77.25
2023-02-03T09:17:17.320Z,79.50
2023-02-03T09:19:43.789Z,78.94
2023-02-03T09:22:10.200Z,80.39
2023-02-03T09:24:36.759Z,79.16
2023-02-03T09:27:03.281Z,81.52
2023-02-03T09:29:29.769Z,80.81
2023-02-03T09:31:56.263Z,80.53
2023-02-03T09:34:22.945Z,81.15
2023-02-03T09:36:51.288Z,82.36
2023-02-03T09:39:17.774Z,81.74
2023-02-03T09:42:02.347Z,84.38
2023-02-03T09:44:43.911Z,83.08
2023-02-03T09:47:25.271Z,81.02
2023-02-03T09:49:55.517Z,80.27
2023-02-03T09:52:34.404Z,81.17
2023-02-03T09:55:25.495Z,79.60
2023-02-03T09:58:19.450Z,77.01
2023-02-03T10:00:53.347Z,79.88
2023-02-03T10:03:20.503Z,80.28
2023-02-03T10:06:05.244Z,78.85
2023-02-03T10:08:39.204Z,78.07
2023-02-03T10:11:23.909Z,77.47
2023-02-03T10:14:17.114Z,79.81
2023-02-03T10:17:02.382Z,79.52
2023-02-03T10:19:43.394Z,81.07
2023-02-03T10:22:17.225Z,83.44
2023-02-03T10:24:54.315Z,82.66
2023-02-03T10:27:23.145Z,83.55
2023-02-03T10:29:56.797Z,83.40
2023-02-03T10:32:24.918Z,81.33
2023-02-03T10:34:51.341Z,83.05
2023-02-03T10:37:22.392Z,83.17
2023-02-03T10:39:51.460Z,82.86
2023-02-03T10:42:18.647Z,82.49
2023-02-03T10:44:59.535Z,82.68
2023-02-03T10:47:41.268Z,82.29
2023-02-03T10:50:23.290Z,82.42
2023-02-03T10:52:49.857Z,81.68
2023-02-03T10:55:25.328Z,82.89
2023-02-03T10:57:55.873Z,82.64
2023-02-03T11:00:32.463Z,80.92
2023-02-03T11:03:10.753Z,85.59
2023-02-03T11:05:37.245Z,83.76
2023-02-03T11:08:04.055Z,82.25
2023-02-03T11:10:40.258Z,83.05
2023-02-03T11:13:27.356Z,81.29
2023-02-03T11:16:14.477Z,78.72
2023-02-03T11:18:47.255Z,79.65
2023-02-03T11:21:17.629Z,78.73
2023-02-03T11:23:49.042Z,78.36
2023-02-03T11:26:20.755Z,78.76
2023-02-03T11:28:50.482Z,79.73
2023-02-03T11:31:20.405Z,77.98
2023-02-03T11:33:49.217Z,79.07
2023-02-03T11:36:17.409Z,77.62
2023-02-03T11:38:44.713Z,76.39
2023-02-03T11:41:22.422Z,77.62
2023-02-03T11:43:55.593Z,78.10
2023-02-03T11:46:22.242Z,78.13
2023-02-03T11:49:09.609Z,76.88
2023-02-03T11:51:58.584Z,75.42
2023-02-03T11:54:40.626Z,75.63
2023-02-03T11:57:18.959Z,75.82
2023-02-03T12:00:13.317Z,75.60
2023-02-03T12:02:45.823Z,75.14
2023-02-03T12:05:18.441Z,74.75
2023-02-03T12:07:44.790Z,77.57
2023-02-03T12:10:35.970Z,76.19
2023-02-03T12:13:20.130Z,74.33
2023-02-03T12:16:04.141Z,73.68
2023-02-03T12:18:49.427Z,74.79
2023-02-03T12:21:18.862Z,75.30
2023-02-03T12:23:53.911Z,74.83
2023-02-03T12:26:34.547Z,73.65
2023-02-03T12:29:06.889Z,73.89
2023-02-03T12:32:05.484Z,73.67
2023-02-03T12:34:38.312Z,73.13
2023-02-03T12:37:06.788Z,74.38
2023-02-03T12:39:48.131Z,71.96
2023-02-03T12:42:41.855Z,71.90
2023-02-03T12:45:08.259Z,68.98
2023-02-03T12:47:44.694Z,67.34
2023-02-03T12:50:23.814Z,67.45
2023-02-03T12:53:01.763Z,68.29
2023-02-03T12:55:44.888Z,68.52
2023-02-03T12:58:23.212Z,69.22
2023-02-03T13:01:02.945Z,69.99
2023-02-03T13:03:45.801Z,66.62
2023-02-03T13:06:20.198Z,64.94
2023-02-03T13:08:58.190Z,67.60
2023-02-03T13:11:42.880Z,66.48
2023-02-03T13:14:27.507Z,65.02
2023-02-03T13:17:00.579Z,63.31
2023-02-03T13:19:41.158Z,63.86
2023-02-03T13:22:12.965Z,62.64
2023-02-03T13:24:43.873Z,61.82
2023-02-03T13:27:35.060Z,60.54
2023-02-03T13:30:10.693Z,59.33
2023-02-03T13:32:56.769Z,57.07
2023-02-03T13:35:50.334Z,56.66
2023-02-03T13:38:44.472Z,57.64
2023-02-03T13:41:28.541Z,59.42
2023-02-03T13:43:57.219Z,56.17
2023-02-03T13:46:27.495Z,54.15
2023-02-03T13:48:56.852Z,54.01
2023-02-03T13:51:46.809Z,54.28
2023-02-03T13:54:30.108Z,52.34
2023-02-03T13:57:01.386Z,53.49
2023-02-03T13:59:36.934Z,51.41
2023-02-03T14:02:32.098Z,51.77
2023-02-03T14:04:59.667Z,52.34
2023-02-03T14:07:29.083Z,54.44
2023-02-03T14:10:16.893Z,53.18
2023-02-03T14:12:49.369Z,53.56
2023-02-03T14:15:28.872Z,53.74
2023-02-03T14:18:00.215Z,53.24
2023-02-03T14:20:26.710Z,53.06
2023-02-03T14:22:54.603Z,54.94
2023-02-03T14:25:21.946Z,54.03
2023-02-03T14:28:09.815Z,53.30
2023-02-03T14:31:02.906Z,52.47
2023-02-03T14:33:48.112Z,52.39
2023-02-03T14:36:38.806Z,53.59
2023-02-03T14:39:37.183Z,53.98
2023-02-03T14:42:22.548Z,53.87
2023-02-03T14:45:06.783Z,53.03
2023-02-03T14:47:45.341Z,52.40
2023-02-03T14:50:43.429Z,50.02
2023-02-03T14:53:28.670Z,51.05
2023-02-03T14:56:07.355Z,50.78
2023-02-03T14:58:44.378Z,49.72
2023-02-03T15:01:49.388Z,50.58
2023-02-03T15:04:15.851Z,50.94
2023-02-03T15:06:43.449Z,50.64
2023-02-03T15:09:31.699Z,49.65
2023-02-03T15:11:58.509Z,48.81
2023-02-03T15:14:27.860Z,49.75
2023-02-03T15:17:12.298Z,49.59
2023-02-03T15:19:41.379Z,50.20
2023-02-03T15:22:23.708Z,48.78
2023-02-03T15:24:58.708Z,50.84
2023-02-03T15:27:28.009Z,49.15
2023-02-03T15:29:57.154Z,50.93
2023-02-03T15:32:29.352Z,50.75
2023-02-03T15:34:58.491Z,51.52
2023-02-03T15:37:41.761Z,50.12
2023-02-03T15:40:17.651Z,51.13
2023-02-03T15:43:05.765Z,52.57
2023-02-03T15:45:37.728Z,49.29
2023-02-03T15:48:36.903Z,50.83
2023-02-03T15:51:12.858Z,49.22
2023-02-03T15:54:00.610Z,50.48
2023-02-03T15:56:41.006Z,49.73
2023-02-03T15:59:22.706Z,49.14
2023-02-03T16:01:49.547Z,50.45
2023-02-03T16:04:16.264Z,50.07
2023-02-03T16:06:47.638Z,49.76
2023-02-03T16:09:35.063Z,52.19
2023-02-03T16:12:07.407Z,51.16
2023-02-03T16:14:36.425Z,49.97
2023-02-03T16:17:06.092Z,51.07
2023-02-03T16:19:37.947Z,49.72
2023-02-03T16:22:04.480Z,50.94
2023-02-03T16:24:42.374Z,49.80
2023-02-03T16:27:33.050Z,50.39
2023-02-03T16:30:24.045Z,50.80
2023-02-03T16:33:31.080Z,51.67
2023-02-03T16:36:20.017Z,51.88
2023-02-03T16:39:08.860Z,51.02
2023-02-03T16:41:55.636Z,51.94
2023-02-03T16:44:40.604Z,53.36
2023-02-03T16:47:57.299Z,52.78
2023-02-03T16:50:43.478Z,53.00
2023-02-03T16:53:17.719Z,52.87
2023-02-03T16:55:44.555Z,53.84
2023-02-03T16:58:13.890Z,52.38
2023-02-03T17:00:42.475Z,54.29
2023-02-03T17:03:20.919Z,54.47
2023-02-03T17:05:48.727Z,53.20
2023-02-03T17:08:17.469Z,54.40
2023-02-03T17:10:45.022Z,53.97
2023-02-03T17:13:12.075Z,52.99
2023-02-03T17:15:52.456Z,54.63
2023-02-03T17:18:19.331Z,55.51
2023-02-03T17:20:46.271Z,55.22
2023-02-03T17:23:13.404Z,54.70
2023-02-03T17:25:40.603Z,54.82
2023-02-03T17:28:08.639Z,54.82
2023-02-03T17:30:36.057Z,56.39
2023-02-03T17:33:11.824Z,56.54
2023-02-03T17:35:39.984Z,55.45
2023-02-03T17:38:06.445Z,56.08
2023-02-03T17:54:14.041Z,55.39
2023-02-03T17:56:40.504Z,55.92
2023-02-03T17:59:06.897Z,56.48
2023-02-03T18:01:33.395Z,55.33
2023-02-03T18:04:04.828Z,57.41
2023-02-03T18:06:35.530Z,56.65
2023-02-03T18:09:06.365Z,57.46
2023-02-03T18:11:34.668Z,56.15
2023-02-03T18:14:01.470Z,57.22
2023-02-03T18:16:32.393Z,57.18
2023-02-03T18:19:00.556Z,54.83
2023-02-03T18:21:27.235Z,55.73
2023-02-03T18:23:59.259Z,55.50
2023-02-03T18:26:28.764Z,54.52
2023-02-03T18:28:56.000Z,56.13
2023-02-03T18:31:22.484Z,56.83
2023-02-03T18:33:49.088Z,57.61
2023-02-03T18:36:16.676Z,58.96
2023-02-03T18:38:45.333Z,59.06
2023-02-03T18:41:15.497Z,59.62
2023-02-03T18:43:42.229Z,59.47
2023-02-03T18:46:11.363Z,61.93
2023-02-03T18:48:37.833Z,60.71
2023-02-03T18:51:08.991Z,64.87
2023-02-03T18:53:36.228Z,65.05
2023-02-03T18:56:06.557Z,65.84
2023-02-03T18:58:33.425Z,69.04
2023-02-03T19:01:00.593Z,70.31
2023-02-03T19:03:27.367Z,66.92
2023-02-03T19:05:54.232Z,67.07
2023-02-03T19:08:20.861Z,67.12
2023-02-03T19:10:51.037Z,64.48
2023-02-03T19:13:18.146Z,67.88
2023-02-03T19:15:44.860Z,66.06
2023-02-03T19:18:11.308Z,64.91
2023-02-03T19:20:37.747Z,65.41
2023-02-03T19:23:08.314Z,66.25
2023-02-03T19:25:38.544Z,64.42
2023-02-03T19:28:06.738Z,65.96
2023-02-03T19:30:33.364Z,68.53
2023-02-03T19:32:59.808Z,67.63
2023-02-03T19:35:26.410Z,66.62
2023-02-03T19:37:53.710Z,67.43
2023-02-03T19:40:20.180Z,67.83
2023-02-03T19:42:46.648Z,68.74
2023-02-03T19:45:13.189Z,69.79
2023-02-03T19:47:39.590Z,68.44
2023-02-03T19:50:06.538Z,69.59
2023-02-03T19:52:33.214Z,68.59
2023-02-03T19:54:59.631Z,69.29
2023-02-03T19:57:26.208Z,67.37
2023-02-03T19:59:52.592Z,68.54
2023-02-03T20:02:20.115Z,68.23
2023-02-03T20:04:46.688Z,68.73
2023-02-03T20:07:14.156Z,70.04
2023-02-03T20:09:40.650Z,68.27
2023-02-03T20:12:07.170Z,68.46
2023-02-03T20:14:33.838Z,68.67
2023-02-03T20:17:00.336Z,69.65
2023-02-03T20:19:26.748Z,65.55
2023-02-03T20:21:53.130Z,68.53
2023-02-03T20:24:19.723Z,68.92
2023-02-03T20:26:46.188Z,70.25
2023-02-03T20:29:12.714Z,68.20
2023-02-03T20:31:39.231Z,68.64
2023-02-03T20:34:06.152Z,69.10
2023-02-03T20:36:32.698Z,66.67
2023-02-03T20:38:59.187Z,65.86
2023-02-03T20:41:25.573Z,65.89
2023-02-03T20:43:52.131Z,66.30
2023-02-03T20:46:19.062Z,67.92
2023-02-03T20:48:45.592Z,66.44
2023-02-03T20:51:18.301Z,65.50
2023-02-03T20:53:44.737Z,66.47
2023-02-03T20:56:13.961Z,66.91
2023-02-03T20:58:42.460Z,69.91
2023-02-03T21:01:20.701Z,71.19
2023-02-03T21:04:06.480Z,72.49
2023-02-03T21:06:34.127Z,72.66
2023-02-03T21:09:08.779Z,75.06
2023-02-03T21:11:35.330Z,75.40
2023-02-03T21:14:05.076Z,73.58
2023-02-03T21:16:38.834Z,74.83
2023-02-03T21:19:11.046Z,74.94
2023-02-03T21:21:40.266Z,73.16
2023-02-03T21:24:37.841Z,73.45
2023-02-03T21:27:22.236Z,70.79
2023-02-03T21:29:50.028Z,72.50
2023-02-03T21:32:16.419Z,72.23
2023-02-03T21:34:44.475Z,71.50
2023-02-03T21:37:22.776Z,73.83
2023-02-03T21:39:49.589Z,73.29
2023-02-03T21:42:42.803Z,72.34
2023-02-03T21:45:16.593Z,72.35
2023-02-03T21:47:44.686Z,70.30
2023-02-03T21:50:36.762Z,70.95
2023-02-03T21:53:09.201Z,71.93
2023-02-03T21:55:36.898Z,69.95
2023-02-03T21:58:12.154Z,70.10
2023-02-03T22:00:43.407Z,71.51
2023-02-03T22:03:20.266Z,71.73
2023-02-03T22:05:47.715Z,71.39
2023-02-03T22:08:18.564Z,71.60
2023-02-03T22:10:45.133Z,72.05
2023-02-03T22:13:13.033Z,72.85
2023-02-03T22:15:40.922Z,72.96
2023-02-03T22:18:07.541Z,73.81
2023-02-03T22:20:34.885Z,74.33
2023-02-03T22:23:01.340Z,73.06
2023-02-03T22:25:27.836Z,72.11
2023-02-03T22:27:54.362Z,70.31
2023-02-03T22:30:20.962Z,71.68
2023-02-03T22:32:47.399Z,71.95
2023-02-03T22:35:13.896Z,71.10
2023-02-03T22:37:40.319Z,69.02
2023-02-03T22:40:06.987Z,68.48
2023-02-03T22:42:33.394Z,69.24
2023-02-03T22:44:59.818Z,68.84
2023-02-03T22:47:26.392Z,67.79
2023-02-03T22:49:52.823Z,66.78
2023-02-03T22:52:19.239Z,68.26
2023-02-03T22:54:45.708Z,68.41
2023-02-03T22:57:12.139Z,68.92
2023-02-03T22:59:38.602Z,67.38
2023-02-03T23:02:05.026Z,68.36
2023-02-03T23:04:31.449Z,68.22
2023-02-03T23:06:57.876Z,70.00
2023-02-03T23:09:24.354Z,67.44
2023-02-03T23:11:50.846Z,67.75
2023-02-03T23:14:17.278Z,66.33
2023-02-03T23:16:43.844Z,66.01
2023-02-03T23:19:10.246Z,66.92
2023-02-03T23:21:36.640Z,67.27
2023-02-03T23:24:03.257Z,67.00
2023-02-03T23:26:29.704Z,66.79
2023-02-03T23:28:56.161Z,67.46
2023-02-03T23:31:22.677Z,68.94
2023-02-03T23:34:09.430Z,66.29
2023-02-03T23:36:35.880Z,66.82
2023-02-03T23:39:02.370Z,67.07
2023-02-03T23:41:28.790Z,66.25
2023-02-03T23:43:55.197Z,67.38
2023-02-03T23:46:21.650Z,69.42
2023-02-03T23:48:48.106Z,67.50
2023-02-03T23:51:14.598Z,67.56
2023-02-03T23:53:40.986Z,68.25
2023-02-03T23:56:07.426Z,68.88
2023-02-03T23:58:33.859Z,69.56
